sensor_id;sensor_type;location;lat;lon;timestamp;P1;durP1;ratioP1;P2;durP2;ratioP2
52590;SDS011;38483;42.620;25.394;2023-10-08T00:01:10;7.33;;;4.80;;
52590;SDS011;38483;42.620;25.394;2023-10-08T00:03:45;12.13;;;5.40;;
52590;SDS011;38483;42.620;25.394;2023-10-08T00:06:18;9.47;;;4.77;;
52590;SDS011;38483;42.620;25.394;2023-10-08T00:08:49;11.00;;;4.40;;
52590;SDS011;38483;42.620;25.394;2023-10-08T00:11:17;8.43;;;4.97;;
52590;SDS011;38483;42.620;25.394;2023-10-08T00:13:44;9.27;;;5.33;;
52590;SDS011;38483;42.620;25.394;2023-10-08T00:16:15;9.33;;;5.10;;
52590;SDS011;38483;42.620;25.394;2023-10-08T00:18:45;8.73;;;5.10;;
52590;SDS011;38483;42.620;25.394;2023-10-08T00:21:19;10.93;;;6.07;;
52590;SDS011;38483;42.620;25.394;2023-10-08T00:23:53;7.43;;;5.17;;
52590;SDS011;38483;42.620;25.394;2023-10-08T00:26:24;10.30;;;5.00;;
52590;SDS011;38483;42.620;25.394;2023-10-08T00:28:56;13.00;;;5.47;;
52590;SDS011;38483;42.620;25.394;2023-10-08T00:31:28;11.43;;;5.37;;
52590;SDS011;38483;42.620;25.394;2023-10-08T00:33:58;8.87;;;4.77;;
52590;SDS011;38483;42.620;25.394;2023-10-08T00:36:25;10.90;;;5.73;;
52590;SDS011;38483;42.620;25.394;2023-10-08T00:38:52;9.17;;;5.70;;
52590;SDS011;38483;42.620;25.394;2023-10-08T00:41:24;8.20;;;5.43;;
52590;SDS011;38483;42.620;25.394;2023-10-08T00:43:55;8.77;;;5.77;;
52590;SDS011;38483;42.620;25.394;2023-10-08T00:46:32;8.83;;;4.97;;
52590;SDS011;38483;42.620;25.394;2023-10-08T00:49:02;10.77;;;5.47;;
52590;SDS011;38483;42.620;25.394;2023-10-08T00:51:51;8.83;;;5.67;;
52590;SDS011;38483;42.620;25.394;2023-10-08T00:54:50;8.10;;;5.00;;
52590;SDS011;38483;42.620;25.394;2023-10-08T00:57:27;8.30;;;4.63;;
52590;SDS011;38483;42.620;25.394;2023-10-08T00:59:57;9.67;;;6.13;;
52590;SDS011;38483;42.620;25.394;2023-10-08T01:02:28;9.13;;;5.80;;
52590;SDS011;38483;42.620;25.394;2023-10-08T01:05:10;12.73;;;6.23;;
52590;SDS011;38483;42.620;25.394;2023-10-08T01:07:41;8.93;;;5.83;;
52590;SDS011;38483;42.620;25.394;2023-10-08T01:10:15;10.10;;;5.60;;
52590;SDS011;38483;42.620;25.394;2023-10-08T01:12:47;9.93;;;6.20;;
52590;SDS011;38483;42.620;25.394;2023-10-08T01:15:21;12.27;;;6.00;;
52590;SDS011;38483;42.620;25.394;2023-10-08T01:17:56;10.27;;;5.90;;
52590;SDS011;38483;42.620;25.394;2023-10-08T01:20:27;8.73;;;5.30;;
52590;SDS011;38483;42.620;25.394;2023-10-08T01:23:08;9.70;;;5.97;;
52590;SDS011;38483;42.620;25.394;2023-10-08T01:25:37;9.00;;;5.33;;
52590;SDS011;38483;42.620;25.394;2023-10-08T01:28:05;8.93;;;5.90;;
52590;SDS011;38483;42.620;25.394;2023-10-08T01:30:57;11.03;;;5.67;;
52590;SDS011;38483;42.620;25.394;2023-10-08T01:33:27;7.20;;;4.57;;
52590;SDS011;38483;42.620;25.394;2023-10-08T01:35:55;7.30;;;4.60;;
52590;SDS011;38483;42.620;25.394;2023-10-08T01:38:33;8.53;;;5.50;;
52590;SDS011;38483;42.620;25.394;2023-10-08T01:41:00;6.93;;;4.43;;
52590;SDS011;38483;42.620;25.394;2023-10-08T01:43:37;10.73;;;5.00;;
52590;SDS011;38483;42.620;25.394;2023-10-08T01:46:05;6.33;;;4.20;;
52590;SDS011;38483;42.620;25.394;2023-10-08T01:48:38;8.90;;;5.00;;
52590;SDS011;38483;42.620;25.394;2023-10-08T01:51:06;9.17;;;5.10;;
52590;SDS011;38483;42.620;25.394;2023-10-08T01:53:38;9.50;;;5.63;;
52590;SDS011;38483;42.620;25.394;2023-10-08T01:56:05;11.67;;;5.17;;
52590;SDS011;38483;42.620;25.394;2023-10-08T01:58:33;9.60;;;4.40;;
52590;SDS011;38483;42.620;25.394;2023-10-08T02:01:02;6.77;;;4.67;;
52590;SDS011;38483;42.620;25.394;2023-10-08T02:03:32;8.13;;;4.57;;
52590;SDS011;38483;42.620;25.394;2023-10-08T02:05:59;8.07;;;4.67;;
52590;SDS011;38483;42.620;25.394;2023-10-08T02:08:26;7.37;;;4.80;;
52590;SDS011;38483;42.620;25.394;2023-10-08T02:10:53;10.27;;;4.60;;
52590;SDS011;38483;42.620;25.394;2023-10-08T02:13:21;7.33;;;4.03;;
52590;SDS011;38483;42.620;25.394;2023-10-08T02:15:51;7.67;;;4.60;;
52590;SDS011;38483;42.620;25.394;2023-10-08T02:18:20;9.00;;;4.97;;
52590;SDS011;38483;42.620;25.394;2023-10-08T02:20:51;7.17;;;4.70;;
52590;SDS011;38483;42.620;25.394;2023-10-08T02:23:24;7.30;;;4.13;;
52590;SDS011;38483;42.620;25.394;2023-10-08T02:25:52;6.47;;;3.93;;
52590;SDS011;38483;42.620;25.394;2023-10-08T02:28:21;8.33;;;4.50;;
52590;SDS011;38483;42.620;25.394;2023-10-08T02:31:05;8.53;;;4.67;;
52590;SDS011;38483;42.620;25.394;2023-10-08T02:33:33;6.17;;;4.40;;
52590;SDS011;38483;42.620;25.394;2023-10-08T02:36:02;5.00;;;3.90;;
52590;SDS011;38483;42.620;25.394;2023-10-08T02:38:31;7.10;;;4.17;;
52590;SDS011;38483;42.620;25.394;2023-10-08T02:41:06;11.30;;;4.80;;
52590;SDS011;38483;42.620;25.394;2023-10-08T02:43:33;7.10;;;4.43;;
52590;SDS011;38483;42.620;25.394;2023-10-08T02:46:03;10.40;;;4.83;;
52590;SDS011;38483;42.620;25.394;2023-10-08T02:48:34;10.90;;;4.63;;
52590;SDS011;38483;42.620;25.394;2023-10-08T02:51:02;14.70;;;5.60;;
52590;SDS011;38483;42.620;25.394;2023-10-08T02:53:34;10.23;;;4.40;;
52590;SDS011;38483;42.620;25.394;2023-10-08T02:56:02;9.40;;;5.40;;
52590;SDS011;38483;42.620;25.394;2023-10-08T02:58:39;8.63;;;4.40;;
52590;SDS011;38483;42.620;25.394;2023-10-08T03:01:07;7.70;;;4.23;;
52590;SDS011;38483;42.620;25.394;2023-10-08T03:03:40;8.67;;;4.50;;
52590;SDS011;38483;42.620;25.394;2023-10-08T03:06:09;8.60;;;4.37;;
52590;SDS011;38483;42.620;25.394;2023-10-08T03:08:41;7.33;;;4.33;;
52590;SDS011;38483;42.620;25.394;2023-10-08T03:11:09;8.10;;;4.00;;
52590;SDS011;38483;42.620;25.394;2023-10-08T03:13:44;9.77;;;5.00;;
52590;SDS011;38483;42.620;25.394;2023-10-08T03:16:19;6.40;;;3.90;;
52590;SDS011;38483;42.620;25.394;2023-10-08T03:18:54;7.47;;;4.53;;
52590;SDS011;38483;42.620;25.394;2023-10-08T03:21:24;8.17;;;4.53;;
52590;SDS011;38483;42.620;25.394;2023-10-08T03:24:13;9.57;;;4.57;;
52590;SDS011;38483;42.620;25.394;2023-10-08T03:27:00;8.13;;;4.00;;
52590;SDS011;38483;42.620;25.394;2023-10-08T03:29:53;7.10;;;4.13;;
52590;SDS011;38483;42.620;25.394;2023-10-08T03:32:21;8.97;;;5.10;;
52590;SDS011;38483;42.620;25.394;2023-10-08T03:34:53;7.83;;;4.03;;
52590;SDS011;38483;42.620;25.394;2023-10-08T03:37:22;10.23;;;4.50;;
52590;SDS011;38483;42.620;25.394;2023-10-08T03:39:56;7.47;;;4.40;;
52590;SDS011;38483;42.620;25.394;2023-10-08T03:42:42;10.07;;;4.93;;
52590;SDS011;38483;42.620;25.394;2023-10-08T03:45:11;9.40;;;4.30;;
52590;SDS011;38483;42.620;25.394;2023-10-08T03:47:39;7.80;;;4.70;;
52590;SDS011;38483;42.620;25.394;2023-10-08T03:50:13;6.07;;;4.13;;
52590;SDS011;38483;42.620;25.394;2023-10-08T03:52:44;6.93;;;3.93;;
52590;SDS011;38483;42.620;25.394;2023-10-08T03:55:13;5.67;;;4.00;;
52590;SDS011;38483;42.620;25.394;2023-10-08T03:57:48;5.73;;;3.83;;
52590;SDS011;38483;42.620;25.394;2023-10-08T04:00:24;7.27;;;3.97;;
52590;SDS011;38483;42.620;25.394;2023-10-08T04:02:58;9.03;;;4.43;;
52590;SDS011;38483;42.620;25.394;2023-10-08T04:05:38;6.17;;;4.17;;
52590;SDS011;38483;42.620;25.394;2023-10-08T04:08:26;5.77;;;3.87;;
52590;SDS011;38483;42.620;25.394;2023-10-08T04:11:13;7.23;;;4.03;;
52590;SDS011;38483;42.620;25.394;2023-10-08T04:13:57;6.23;;;4.10;;
52590;SDS011;38483;42.620;25.394;2023-10-08T04:16:29;9.20;;;5.03;;
52590;SDS011;38483;42.620;25.394;2023-10-08T04:18:56;5.27;;;3.70;;
52590;SDS011;38483;42.620;25.394;2023-10-08T04:21:24;8.70;;;3.80;;
52590;SDS011;38483;42.620;25.394;2023-10-08T04:23:54;5.30;;;3.70;;
52590;SDS011;38483;42.620;25.394;2023-10-08T04:26:24;7.17;;;3.40;;
52590;SDS011;38483;42.620;25.394;2023-10-08T04:28:55;6.40;;;4.00;;
52590;SDS011;38483;42.620;25.394;2023-10-08T04:31:29;10.13;;;4.07;;
52590;SDS011;38483;42.620;25.394;2023-10-08T04:34:10;8.47;;;4.67;;
52590;SDS011;38483;42.620;25.394;2023-10-08T04:36:42;7.97;;;4.37;;
52590;SDS011;38483;42.620;25.394;2023-10-08T04:39:15;6.20;;;4.07;;
52590;SDS011;38483;42.620;25.394;2023-10-08T04:41:42;7.10;;;3.93;;
52590;SDS011;38483;42.620;25.394;2023-10-08T04:44:10;6.87;;;4.07;;
52590;SDS011;38483;42.620;25.394;2023-10-08T04:46:41;8.13;;;4.60;;
52590;SDS011;38483;42.620;25.394;2023-10-08T04:49:15;6.80;;;4.30;;
52590;SDS011;38483;42.620;25.394;2023-10-08T04:52:02;7.17;;;4.27;;
52590;SDS011;38483;42.620;25.394;2023-10-08T04:54:54;7.30;;;3.60;;
52590;SDS011;38483;42.620;25.394;2023-10-08T04:57:23;5.17;;;3.50;;
52590;SDS011;38483;42.620;25.394;2023-10-08T04:59:52;6.10;;;3.30;;
52590;SDS011;38483;42.620;25.394;2023-10-08T05:02:24;6.87;;;3.90;;
52590;SDS011;38483;42.620;25.394;2023-10-08T05:05:03;8.53;;;4.47;;
52590;SDS011;38483;42.620;25.394;2023-10-08T05:07:49;8.27;;;3.77;;
52590;SDS011;38483;42.620;25.394;2023-10-08T05:10:16;6.23;;;3.50;;
52590;SDS011;38483;42.620;25.394;2023-10-08T05:12:53;6.63;;;3.60;;
52590;SDS011;38483;42.620;25.394;2023-10-08T05:15:32;12.40;;;3.83;;
52590;SDS011;38483;42.620;25.394;2023-10-08T05:18:03;10.70;;;3.70;;
52590;SDS011;38483;42.620;25.394;2023-10-08T05:20:50;7.23;;;3.60;;
52590;SDS011;38483;42.620;25.394;2023-10-08T05:23:18;4.53;;;3.87;;
52590;SDS011;38483;42.620;25.394;2023-10-08T05:25:56;6.87;;;4.00;;
52590;SDS011;38483;42.620;25.394;2023-10-08T05:28:46;8.67;;;4.77;;
52590;SDS011;38483;42.620;25.394;2023-10-08T05:31:49;11.20;;;3.60;;
52590;SDS011;38483;42.620;25.394;2023-10-08T05:34:36;8.60;;;4.07;;
52590;SDS011;38483;42.620;25.394;2023-10-08T05:37:09;7.53;;;3.83;;
52590;SDS011;38483;42.620;25.394;2023-10-08T05:39:58;7.40;;;3.07;;
52590;SDS011;38483;42.620;25.394;2023-10-08T05:42:38;6.50;;;3.57;;
52590;SDS011;38483;42.620;25.394;2023-10-08T05:45:13;5.10;;;2.77;;
52590;SDS011;38483;42.620;25.394;2023-10-08T05:47:41;6.60;;;3.77;;
52590;SDS011;38483;42.620;25.394;2023-10-08T05:50:28;9.63;;;4.20;;
52590;SDS011;38483;42.620;25.394;2023-10-08T05:56:07;5.03;;;3.33;;
52590;SDS011;38483;42.620;25.394;2023-10-08T05:58:55;6.50;;;3.40;;
52590;SDS011;38483;42.620;25.394;2023-10-08T06:01:49;7.17;;;3.37;;
52590;SDS011;38483;42.620;25.394;2023-10-08T06:04:25;5.50;;;3.10;;
52590;SDS011;38483;42.620;25.394;2023-10-08T06:07:21;8.63;;;3.10;;
52590;SDS011;38483;42.620;25.394;2023-10-08T06:10:00;13.00;;;3.27;;
52590;SDS011;38483;42.620;25.394;2023-10-08T06:12:31;7.10;;;3.37;;
52590;SDS011;38483;42.620;25.394;2023-10-08T06:15:11;11.50;;;4.10;;
52590;SDS011;38483;42.620;25.394;2023-10-08T06:17:38;5.93;;;3.30;;
52590;SDS011;38483;42.620;25.394;2023-10-08T06:20:34;5.50;;;2.90;;
52590;SDS011;38483;42.620;25.394;2023-10-08T06:23:01;7.23;;;3.27;;
52590;SDS011;38483;42.620;25.394;2023-10-08T06:25:34;8.13;;;3.67;;
52590;SDS011;38483;42.620;25.394;2023-10-08T06:28:13;7.23;;;2.90;;
52590;SDS011;38483;42.620;25.394;2023-10-08T06:30:44;6.43;;;3.13;;
52590;SDS011;38483;42.620;25.394;2023-10-08T06:33:13;5.83;;;2.80;;
52590;SDS011;38483;42.620;25.394;2023-10-08T06:35:44;8.43;;;3.30;;
52590;SDS011;38483;42.620;25.394;2023-10-08T06:38:11;6.20;;;3.07;;
52590;SDS011;38483;42.620;25.394;2023-10-08T06:40:42;11.97;;;3.73;;
52590;SDS011;38483;42.620;25.394;2023-10-08T06:43:09;12.03;;;3.67;;
52590;SDS011;38483;42.620;25.394;2023-10-08T06:45:52;8.50;;;3.40;;
52590;SDS011;38483;42.620;25.394;2023-10-08T06:48:19;6.93;;;3.23;;
52590;SDS011;38483;42.620;25.394;2023-10-08T06:50:48;9.37;;;3.77;;
52590;SDS011;38483;42.620;25.394;2023-10-08T06:53:17;8.13;;;3.70;;
52590;SDS011;38483;42.620;25.394;2023-10-08T06:55:48;7.07;;;3.80;;
52590;SDS011;38483;42.620;25.394;2023-10-08T06:58:23;8.97;;;4.37;;
52590;SDS011;38483;42.620;25.394;2023-10-08T07:00:51;8.83;;;4.90;;
52590;SDS011;38483;42.620;25.394;2023-10-08T07:03:19;8.63;;;3.80;;
52590;SDS011;38483;42.620;25.394;2023-10-08T07:05:51;15.40;;;4.30;;
52590;SDS011;38483;42.620;25.394;2023-10-08T07:08:26;8.83;;;3.80;;
52590;SDS011;38483;42.620;25.394;2023-10-08T07:11:00;8.60;;;3.60;;
52590;SDS011;38483;42.620;25.394;2023-10-08T07:13:28;6.50;;;3.43;;
52590;SDS011;38483;42.620;25.394;2023-10-08T07:15:56;5.63;;;3.30;;
52590;SDS011;38483;42.620;25.394;2023-10-08T07:18:27;9.60;;;3.60;;
52590;SDS011;38483;42.620;25.394;2023-10-08T07:20:58;8.97;;;3.70;;
52590;SDS011;38483;42.620;25.394;2023-10-08T07:23:31;8.37;;;3.43;;
52590;SDS011;38483;42.620;25.394;2023-10-08T07:26:02;13.47;;;5.23;;
52590;SDS011;38483;42.620;25.394;2023-10-08T07:28:41;9.47;;;3.40;;
52590;SDS011;38483;42.620;25.394;2023-10-08T07:31:14;9.03;;;3.23;;
52590;SDS011;38483;42.620;25.394;2023-10-08T07:33:53;10.30;;;4.23;;
52590;SDS011;38483;42.620;25.394;2023-10-08T07:36:40;7.40;;;3.40;;
52590;SDS011;38483;42.620;25.394;2023-10-08T07:39:07;7.47;;;3.03;;
52590;SDS011;38483;42.620;25.394;2023-10-08T07:41:36;9.47;;;3.07;;
52590;SDS011;38483;42.620;25.394;2023-10-08T07:44:04;11.30;;;3.33;;
52590;SDS011;38483;42.620;25.394;2023-10-08T07:46:35;6.17;;;3.03;;
52590;SDS011;38483;42.620;25.394;2023-10-08T07:49:02;8.53;;;3.33;;
52590;SDS011;38483;42.620;25.394;2023-10-08T07:51:30;5.23;;;3.00;;
52590;SDS011;38483;42.620;25.394;2023-10-08T07:54:00;6.13;;;3.00;;
52590;SDS011;38483;42.620;25.394;2023-10-08T07:56:27;5.30;;;3.10;;
52590;SDS011;38483;42.620;25.394;2023-10-08T07:58:57;6.37;;;3.03;;
52590;SDS011;38483;42.620;25.394;2023-10-08T08:01:24;5.37;;;3.00;;
52590;SDS011;38483;42.620;25.394;2023-10-08T08:03:54;6.43;;;3.40;;
52590;SDS011;38483;42.620;25.394;2023-10-08T08:06:24;9.13;;;3.07;;
52590;SDS011;38483;42.620;25.394;2023-10-08T08:08:52;6.20;;;3.60;;
52590;SDS011;38483;42.620;25.394;2023-10-08T08:11:23;9.03;;;3.07;;
52590;SDS011;38483;42.620;25.394;2023-10-08T08:13:54;7.23;;;3.23;;
52590;SDS011;38483;42.620;25.394;2023-10-08T08:16:22;6.80;;;3.40;;
52590;SDS011;38483;42.620;25.394;2023-10-08T08:18:50;9.20;;;3.80;;
52590;SDS011;38483;42.620;25.394;2023-10-08T08:21:19;8.83;;;3.90;;
52590;SDS011;38483;42.620;25.394;2023-10-08T08:23:47;6.53;;;3.90;;
52590;SDS011;38483;42.620;25.394;2023-10-08T08:26:17;7.73;;;2.93;;
52590;SDS011;38483;42.620;25.394;2023-10-08T08:28:58;6.53;;;2.70;;
52590;SDS011;38483;42.620;25.394;2023-10-08T08:31:30;6.17;;;3.17;;
52590;SDS011;38483;42.620;25.394;2023-10-08T08:34:02;5.90;;;3.00;;
52590;SDS011;38483;42.620;25.394;2023-10-08T08:36:35;6.63;;;3.30;;
52590;SDS011;38483;42.620;25.394;2023-10-08T08:39:08;7.17;;;3.00;;
52590;SDS011;38483;42.620;25.394;2023-10-08T08:41:38;5.33;;;2.53;;
52590;SDS011;38483;42.620;25.394;2023-10-08T08:44:06;10.70;;;2.50;;
52590;SDS011;38483;42.620;25.394;2023-10-08T08:46:35;9.10;;;2.83;;
52590;SDS011;38483;42.620;25.394;2023-10-08T08:49:08;11.00;;;2.60;;
52590;SDS011;38483;42.620;25.394;2023-10-08T08:51:38;5.33;;;2.60;;
52590;SDS011;38483;42.620;25.394;2023-10-08T08:54:06;4.37;;;2.20;;
52590;SDS011;38483;42.620;25.394;2023-10-08T08:56:39;4.70;;;2.30;;
52590;SDS011;38483;42.620;25.394;2023-10-08T08:59:11;14.53;;;3.30;;
52590;SDS011;38483;42.620;25.394;2023-10-08T09:01:41;5.40;;;2.20;;
52590;SDS011;38483;42.620;25.394;2023-10-08T09:04:10;16.30;;;3.47;;
52590;SDS011;38483;42.620;25.394;2023-10-08T09:06:38;9.33;;;2.70;;
52590;SDS011;38483;42.620;25.394;2023-10-08T09:09:06;9.57;;;2.70;;
52590;SDS011;38483;42.620;25.394;2023-10-08T09:12:00;14.30;;;2.73;;
52590;SDS011;38483;42.620;25.394;2023-10-08T09:14:28;5.10;;;2.07;;
52590;SDS011;38483;42.620;25.394;2023-10-08T09:16:57;11.07;;;2.70;;
52590;SDS011;38483;42.620;25.394;2023-10-08T09:19:27;11.77;;;2.77;;
52590;SDS011;38483;42.620;25.394;2023-10-08T09:22:09;10.00;;;2.87;;
52590;SDS011;38483;42.620;25.394;2023-10-08T09:24:39;7.20;;;2.30;;
52590;SDS011;38483;42.620;25.394;2023-10-08T09:27:11;6.87;;;2.63;;
52590;SDS011;38483;42.620;25.394;2023-10-08T09:29:42;5.80;;;2.60;;
52590;SDS011;38483;42.620;25.394;2023-10-08T09:32:12;8.13;;;2.40;;
52590;SDS011;38483;42.620;25.394;2023-10-08T09:34:40;12.60;;;3.50;;
52590;SDS011;38483;42.620;25.394;2023-10-08T09:37:09;4.47;;;2.00;;
52590;SDS011;38483;42.620;25.394;2023-10-08T09:39:37;5.57;;;2.40;;
52590;SDS011;38483;42.620;25.394;2023-10-08T09:42:08;5.13;;;2.13;;
52590;SDS011;38483;42.620;25.394;2023-10-08T09:44:39;6.07;;;2.40;;
52590;SDS011;38483;42.620;25.394;2023-10-08T09:47:08;5.93;;;2.53;;
52590;SDS011;38483;42.620;25.394;2023-10-08T09:49:40;4.90;;;2.20;;
52590;SDS011;38483;42.620;25.394;2023-10-08T09:52:36;10.17;;;2.43;;
52590;SDS011;38483;42.620;25.394;2023-10-08T09:55:24;6.03;;;2.77;;
52590;SDS011;38483;42.620;25.394;2023-10-08T09:57:54;4.00;;;2.20;;
52590;SDS011;38483;42.620;25.394;2023-10-08T10:00:22;7.37;;;2.83;;
52590;SDS011;38483;42.620;25.394;2023-10-08T10:03:00;5.17;;;1.97;;
52590;SDS011;38483;42.620;25.394;2023-10-08T10:05:34;6.13;;;2.30;;
52590;SDS011;38483;42.620;25.394;2023-10-08T10:08:04;8.50;;;2.67;;
52590;SDS011;38483;42.620;25.394;2023-10-08T10:10:32;6.83;;;2.70;;
52590;SDS011;38483;42.620;25.394;2023-10-08T10:13:06;7.27;;;2.57;;
52590;SDS011;38483;42.620;25.394;2023-10-08T10:15:36;6.93;;;2.73;;
52590;SDS011;38483;42.620;25.394;2023-10-08T10:18:09;5.80;;;2.37;;
52590;SDS011;38483;42.620;25.394;2023-10-08T10:20:49;6.90;;;2.37;;
52590;SDS011;38483;42.620;25.394;2023-10-08T10:26:04;8.37;;;2.80;;
52590;SDS011;38483;42.620;25.394;2023-10-08T10:28:31;7.57;;;2.93;;
52590;SDS011;38483;42.620;25.394;2023-10-08T10:31:00;7.13;;;2.90;;
52590;SDS011;38483;42.620;25.394;2023-10-08T10:33:31;6.20;;;2.10;;
52590;SDS011;38483;42.620;25.394;2023-10-08T10:36:00;8.73;;;3.10;;
52590;SDS011;38483;42.620;25.394;2023-10-08T10:38:29;7.97;;;2.87;;
52590;SDS011;38483;42.620;25.394;2023-10-08T10:40:56;6.60;;;2.40;;
52590;SDS011;38483;42.620;25.394;2023-10-08T10:43:27;8.00;;;2.77;;
52590;SDS011;38483;42.620;25.394;2023-10-08T10:46:00;10.03;;;3.10;;
52590;SDS011;38483;42.620;25.394;2023-10-08T10:48:48;5.87;;;2.30;;
52590;SDS011;38483;42.620;25.394;2023-10-08T10:51:46;15.13;;;3.40;;
52590;SDS011;38483;42.620;25.394;2023-10-08T10:54:15;11.00;;;3.07;;
52590;SDS011;38483;42.620;25.394;2023-10-08T10:56:51;12.03;;;3.10;;
52590;SDS011;38483;42.620;25.394;2023-10-08T10:59:45;7.40;;;2.83;;
52590;SDS011;38483;42.620;25.394;2023-10-08T11:02:21;7.60;;;2.63;;
52590;SDS011;38483;42.620;25.394;2023-10-08T11:04:59;10.57;;;3.10;;
52590;SDS011;38483;42.620;25.394;2023-10-08T11:07:35;7.43;;;3.00;;
52590;SDS011;38483;42.620;25.394;2023-10-08T11:10:05;7.20;;;2.77;;
52590;SDS011;38483;42.620;25.394;2023-10-08T11:12:38;8.90;;;2.90;;
52590;SDS011;38483;42.620;25.394;2023-10-08T11:15:15;8.10;;;2.90;;
52590;SDS011;38483;42.620;25.394;2023-10-08T11:17:44;10.50;;;3.27;;
52590;SDS011;38483;42.620;25.394;2023-10-08T11:20:26;6.53;;;3.10;;
52590;SDS011;38483;42.620;25.394;2023-10-08T11:22:54;9.60;;;3.47;;
52590;SDS011;38483;42.620;25.394;2023-10-08T11:25:22;7.77;;;3.03;;
52590;SDS011;38483;42.620;25.394;2023-10-08T11:27:58;5.87;;;2.43;;
52590;SDS011;38483;42.620;25.394;2023-10-08T11:30:39;7.80;;;3.00;;
52590;SDS011;38483;42.620;25.394;2023-10-08T11:33:11;9.87;;;2.80;;
52590;SDS011;38483;42.620;25.394;2023-10-08T11:36:00;6.40;;;3.57;;
52590;SDS011;38483;42.620;25.394;2023-10-08T11:38:40;8.93;;;2.70;;
52590;SDS011;38483;42.620;25.394;2023-10-08T11:41:16;12.37;;;3.50;;
52590;SDS011;38483;42.620;25.394;2023-10-08T11:43:57;5.67;;;2.77;;
52590;SDS011;38483;42.620;25.394;2023-10-08T11:46:27;8.70;;;3.10;;
52590;SDS011;38483;42.620;25.394;2023-10-08T11:49:08;5.90;;;2.77;;
52590;SDS011;38483;42.620;25.394;2023-10-08T11:51:44;14.20;;;3.07;;
52590;SDS011;38483;42.620;25.394;2023-10-08T11:54:12;12.30;;;3.63;;
52590;SDS011;38483;42.620;25.394;2023-10-08T11:56:43;12.27;;;3.67;;
52590;SDS011;38483;42.620;25.394;2023-10-08T11:59:11;12.73;;;3.37;;
52590;SDS011;38483;42.620;25.394;2023-10-08T12:01:39;7.43;;;2.77;;
52590;SDS011;38483;42.620;25.394;2023-10-08T12:04:10;13.77;;;3.13;;
52590;SDS011;38483;42.620;25.394;2023-10-08T12:06:41;9.17;;;3.50;;
52590;SDS011;38483;42.620;25.394;2023-10-08T12:09:14;10.53;;;3.90;;
52590;SDS011;38483;42.620;25.394;2023-10-08T12:11:41;7.23;;;3.03;;
52590;SDS011;38483;42.620;25.394;2023-10-08T12:14:09;13.57;;;3.10;;
52590;SDS011;38483;42.620;25.394;2023-10-08T12:16:38;8.70;;;2.67;;
52590;SDS011;38483;42.620;25.394;2023-10-08T12:19:07;7.33;;;3.87;;
52590;SDS011;38483;42.620;25.394;2023-10-08T12:21:45;8.93;;;3.60;;
52590;SDS011;38483;42.620;25.394;2023-10-08T12:24:16;8.83;;;2.90;;
52590;SDS011;38483;42.620;25.394;2023-10-08T12:26:44;12.40;;;2.87;;
52590;SDS011;38483;42.620;25.394;2023-10-08T12:29:16;9.70;;;2.60;;
52590;SDS011;38483;42.620;25.394;2023-10-08T12:31:46;7.43;;;2.40;;
52590;SDS011;38483;42.620;25.394;2023-10-08T12:35:08;7.87;;;2.43;;
52590;SDS011;38483;42.620;25.394;2023-10-08T12:38:28;7.23;;;2.57;;
52590;SDS011;38483;42.620;25.394;2023-10-08T12:41:52;13.57;;;3.83;;
52590;SDS011;38483;42.620;25.394;2023-10-08T12:45:12;8.27;;;2.90;;
52590;SDS011;38483;42.620;25.394;2023-10-08T12:47:40;8.53;;;2.70;;
52590;SDS011;38483;42.620;25.394;2023-10-08T12:50:09;7.60;;;2.93;;
52590;SDS011;38483;42.620;25.394;2023-10-08T12:52:43;13.17;;;2.90;;
52590;SDS011;38483;42.620;25.394;2023-10-08T12:55:19;10.37;;;3.27;;
52590;SDS011;38483;42.620;25.394;2023-10-08T12:57:53;7.73;;;2.57;;
52590;SDS011;38483;42.620;25.394;2023-10-08T13:00:32;8.03;;;3.53;;
52590;SDS011;38483;42.620;25.394;2023-10-08T13:03:00;6.93;;;2.90;;
52590;SDS011;38483;42.620;25.394;2023-10-08T13:05:32;6.13;;;2.27;;
52590;SDS011;38483;42.620;25.394;2023-10-08T13:08:00;8.10;;;2.90;;
52590;SDS011;38483;42.620;25.394;2023-10-08T13:10:36;11.77;;;2.77;;
52590;SDS011;38483;42.620;25.394;2023-10-08T13:13:08;11.83;;;3.10;;
52590;SDS011;38483;42.620;25.394;2023-10-08T13:15:38;7.60;;;2.70;;
52590;SDS011;38483;42.620;25.394;2023-10-08T13:18:06;12.13;;;3.10;;
52590;SDS011;38483;42.620;25.394;2023-10-08T13:20:33;14.30;;;3.73;;
52590;SDS011;38483;42.620;25.394;2023-10-08T13:23:01;11.90;;;2.67;;
52590;SDS011;38483;42.620;25.394;2023-10-08T13:25:33;8.10;;;2.43;;
52590;SDS011;38483;42.620;25.394;2023-10-08T13:28:06;11.63;;;2.73;;
52590;SDS011;38483;42.620;25.394;2023-10-08T13:30:37;7.20;;;2.70;;
52590;SDS011;38483;42.620;25.394;2023-10-08T13:33:04;10.57;;;2.80;;
52590;SDS011;38483;42.620;25.394;2023-10-08T13:35:33;8.53;;;2.60;;
52590;SDS011;38483;42.620;25.394;2023-10-08T13:38:00;10.43;;;2.60;;
52590;SDS011;38483;42.620;25.394;2023-10-08T13:40:36;12.10;;;2.43;;
52590;SDS011;38483;42.620;25.394;2023-10-08T13:43:11;8.60;;;2.70;;
52590;SDS011;38483;42.620;25.394;2023-10-08T13:45:41;10.13;;;2.43;;
52590;SDS011;38483;42.620;25.394;2023-10-08T13:48:09;9.33;;;2.73;;
52590;SDS011;38483;42.620;25.394;2023-10-08T13:50:41;8.53;;;2.83;;
52590;SDS011;38483;42.620;25.394;2023-10-08T13:53:09;11.07;;;2.73;;
52590;SDS011;38483;42.620;25.394;2023-10-08T13:55:37;4.87;;;2.37;;
52590;SDS011;38483;42.620;25.394;2023-10-08T13:58:05;9.73;;;3.20;;
52590;SDS011;38483;42.620;25.394;2023-10-08T14:00:35;9.20;;;2.50;;
52590;SDS011;38483;42.620;25.394;2023-10-08T14:03:10;16.77;;;2.83;;
52590;SDS011;38483;42.620;25.394;2023-10-08T14:05:39;14.53;;;3.30;;
52590;SDS011;38483;42.620;25.394;2023-10-08T14:08:07;11.63;;;3.07;;
52590;SDS011;38483;42.620;25.394;2023-10-08T14:10:41;7.63;;;3.03;;
52590;SDS011;38483;42.620;25.394;2023-10-08T14:13:10;11.07;;;2.73;;
52590;SDS011;38483;42.620;25.394;2023-10-08T14:15:38;5.57;;;2.50;;
52590;SDS011;38483;42.620;25.394;2023-10-08T14:18:10;11.07;;;3.73;;
52590;SDS011;38483;42.620;25.394;2023-10-08T14:20:44;8.90;;;2.60;;
52590;SDS011;38483;42.620;25.394;2023-10-08T14:23:14;20.37;;;4.07;;
52590;SDS011;38483;42.620;25.394;2023-10-08T14:25:46;11.60;;;2.33;;
52590;SDS011;38483;42.620;25.394;2023-10-08T14:28:15;12.87;;;3.80;;
52590;SDS011;38483;42.620;25.394;2023-10-08T14:30:49;13.70;;;3.10;;
52590;SDS011;38483;42.620;25.394;2023-10-08T14:33:22;7.37;;;2.80;;
52590;SDS011;38483;42.620;25.394;2023-10-08T14:35:57;8.63;;;3.40;;
52590;SDS011;38483;42.620;25.394;2023-10-08T14:38:43;7.53;;;2.97;;
52590;SDS011;38483;42.620;25.394;2023-10-08T14:41:29;10.60;;;2.87;;
52590;SDS011;38483;42.620;25.394;2023-10-08T14:44:16;10.60;;;3.00;;
52590;SDS011;38483;42.620;25.394;2023-10-08T14:46:43;10.10;;;2.83;;
52590;SDS011;38483;42.620;25.394;2023-10-08T14:49:11;7.20;;;2.80;;
52590;SDS011;38483;42.620;25.394;2023-10-08T14:51:39;9.87;;;3.17;;
52590;SDS011;38483;42.620;25.394;2023-10-08T14:54:07;10.13;;;3.00;;
52590;SDS011;38483;42.620;25.394;2023-10-08T14:56:35;8.40;;;2.30;;
52590;SDS011;38483;42.620;25.394;2023-10-08T14:59:03;9.60;;;2.90;;
52590;SDS011;38483;42.620;25.394;2023-10-08T15:01:31;6.13;;;2.60;;
52590;SDS011;38483;42.620;25.394;2023-10-08T15:04:00;8.10;;;3.30;;
52590;SDS011;38483;42.620;25.394;2023-10-08T15:06:31;11.33;;;3.07;;
52590;SDS011;38483;42.620;25.394;2023-10-08T15:08:59;13.27;;;2.70;;
52590;SDS011;38483;42.620;25.394;2023-10-08T15:11:28;12.90;;;3.20;;
52590;SDS011;38483;42.620;25.394;2023-10-08T15:13:57;9.67;;;2.83;;